»·PEaware :: CGMWT KMFR-KRDD

CGMWT :: KMFR-KRDD

FLIGHT INFORMATION

Flight Status: Arrived
Operator: Unknown
More flights by this operator :: More flights under this callsign
Pilot: Konrad W. (32064)
Aircraft: Diamond DA-40
(DA40)
More flights by this aircraft type
Origin: KMFR Rogue Valley Intl-Medford
United States
Destination: KRDD Redding Mun
United States
More flights between these airports :: More routes between these airports
Route: +
File this flight plan on PilotEdge
Remarks:
Altitude:
(Current/Filed)
7,500ft
Speed:
(Current/Filed)
0kts
Departed: 27-Oct-20 09:17 PM
Arrived: 27-Oct-20 10:19 PM
Distance/Time
Traveled:
6819nm/1:02
Distance/Time
To Go:
Arrived

Flight Plot

Page will automatically refresh every two minutes.

Flight plan parsing failed; only flown route is shown


Map Options




Map Legend


Flown Route
Filed Route
Departure Airport
Arrival Airport
Navaid (VOR, NDB)
Fix

Horizontal Profiles

Position Reports

Time Latitude Longitude Heading Altitude Ground
Speed
27-Oct-20 21:11 42.374944 -122.877594 117 1316ft 0kts
27-Oct-20 21:12 42.374997 -122.877589 341 1316ft 3kts
27-Oct-20 21:13 42.377606 -122.876284 339 1312ft 25kts
27-Oct-20 21:14 42.385823 -122.880171 51 1297ft 5kts
27-Oct-20 21:15 42.385829 -122.880159 64 1297ft 0kts
27-Oct-20 21:16 42.372721 -122.872078 160 1420ft 88kts
27-Oct-20 21:17 42.354060 -122.852377 110 1955ft 102kts
27-Oct-20 21:18 42.332880 -122.824364 138 2447ft 110kts
27-Oct-20 21:19 42.309391 -122.797401 139 2948ft 111kts
27-Oct-20 21:20 42.284096 -122.773420 153 3448ft 112kts
27-Oct-20 21:21 42.257220 -122.751900 141 3941ft 112kts
27-Oct-20 21:22 42.232240 -122.725855 141 4447ft 114kts
27-Oct-20 21:23 42.207036 -122.699494 141 4945ft 114kts
27-Oct-20 21:24 42.181628 -122.672908 141 5427ft 117kts
27-Oct-20 21:25 42.154949 -122.646796 143 5878ft 117kts
27-Oct-20 21:26 42.128807 -122.620542 142 6377ft 117kts
27-Oct-20 21:27 42.099486 -122.602540 171 6881ft 118kts
27-Oct-20 21:28 42.063761 -122.598166 179 6877ft 139kts
27-Oct-20 21:29 42.024750 -122.599131 181 6663ft 140kts
27-Oct-20 21:30 41.986030 -122.600622 181 6487ft 135kts
27-Oct-20 21:31 41.950398 -122.591399 164 6481ft 128kts
27-Oct-20 21:32 41.916265 -122.579288 164 6478ft 127kts
27-Oct-20 21:33 41.883528 -122.562486 149 6476ft 126kts
27-Oct-20 21:34 41.853259 -122.538966 149 6474ft 125kts
27-Oct-20 21:35 41.823031 -122.515474 149 6496ft 126kts
27-Oct-20 21:36 41.798614 -122.483947 140 6491ft 124kts
27-Oct-20 21:37 41.766585 -122.471870 175 6492ft 121kts
27-Oct-20 21:38 41.732942 -122.469731 177 6490ft 120kts
27-Oct-20 21:39 41.699055 -122.467732 177 6368ft 127kts
27-Oct-20 21:40 41.663166 -122.465577 177 6061ft 129kts
27-Oct-20 21:41 41.627254 -122.463407 177 5762ft 129kts
27-Oct-20 21:42 41.591554 -122.461242 177 5496ft 126kts
27-Oct-20 21:43 41.558140 -122.456398 155 5478ft 119kts
27-Oct-20 21:44 41.528058 -122.438247 155 5473ft 118kts
27-Oct-20 21:45 41.498051 -122.420316 155 5471ft 118kts
27-Oct-20 21:46 41.468047 -122.402558 158 5468ft 117kts
27-Oct-20 21:47 41.436179 -122.391827 165 5466ft 118kts
27-Oct-20 21:48 41.404157 -122.381254 162 5467ft 119kts
27-Oct-20 21:49 41.372577 -122.368571 162 5462ft 118kts
27-Oct-20 21:50 41.341932 -122.353927 142 5462ft 117kts
27-Oct-20 21:51 41.315764 -122.327843 142 5459ft 117kts
27-Oct-20 21:52 41.289532 -122.301869 142 5458ft 117kts
27-Oct-20 21:53 41.263301 -122.275983 142 5457ft 117kts
27-Oct-20 21:54 41.231979 -122.269515 190 5497ft 118kts
27-Oct-20 21:55 41.200915 -122.285037 201 5497ft 121kts
27-Oct-20 21:56 41.169526 -122.301375 201 5494ft 121kts
27-Oct-20 21:57 41.138731 -122.319660 206 5489ft 121kts
27-Oct-20 21:58 41.108600 -122.340028 206 5485ft 122kts
27-Oct-20 21:59 41.078422 -122.360321 206 5483ft 121kts
27-Oct-20 22:00 41.048271 -122.380421 206 5528ft 120kts
27-Oct-20 22:01 41.017971 -122.400829 217 5482ft 124kts
27-Oct-20 22:02 40.988523 -122.423341 202 5474ft 121kts
27-Oct-20 22:03 40.956973 -122.428772 157 5474ft 120kts
27-Oct-20 22:04 40.927118 -122.409228 150 5475ft 120kts
27-Oct-20 22:05 40.897206 -122.388370 150 5470ft 120kts
27-Oct-20 22:06 40.867450 -122.367670 150 5471ft 122kts
27-Oct-20 22:07 40.837614 -122.346941 150 5470ft 121kts
27-Oct-20 22:08 40.807562 -122.326813 162 5474ft 123kts
27-Oct-20 22:09 40.773031 -122.321121 174 5153ft 125kts
27-Oct-20 22:10 40.741340 -122.305130 151 4614ft 121kts
27-Oct-20 22:11 40.708098 -122.298378 178 4121ft 122kts
27-Oct-20 22:12 40.674287 -122.297929 177 3620ft 121kts
27-Oct-20 22:13 40.640466 -122.296362 175 3121ft 121kts
27-Oct-20 22:14 40.607163 -122.295451 178 2613ft 121kts
27-Oct-20 22:15 40.575303 -122.295071 176 2005ft 112kts
27-Oct-20 22:16 40.546576 -122.294736 183 1254ft 102kts
27-Oct-20 22:18 40.519414 -122.294803 177 523ft 89kts
27-Oct-20 22:19 40.508474 -122.297115 235 503ft 24kts
27-Oct-20 22:20 40.509618 -122.298312 1 501ft 0kts
27-Oct-20 22:21 40.509618 -122.298312 1 501ft 0kts
27-Oct-20 22:22 40.509618 -122.298312 1 501ft 0kts
27-Oct-20 22:23 40.509618 -122.298312 1 501ft 0kts
27-Oct-20 22:24 40.509618 -122.298312 1 501ft 0kts
27-Oct-20 22:25 40.509618 -122.298312 1 501ft 0kts
27-Oct-20 22:26 40.509618 -122.298312 1 501ft 0kts
27-Oct-20 22:27 0.000408 0.013975 0 3ft 0kts

Navigation Log

Ident Type
Flight plan parsing failed, navigation log unavailable